sensor_id;sensor_type;location;lat;lon;timestamp;temperature;humidity
56725;DHT22;42608;52.776;6.968;2023-02-15T00:01:13;3.50;99.90
56725;DHT22;42608;52.776;6.968;2023-02-15T00:03:39;3.50;99.90
56725;DHT22;42608;52.776;6.968;2023-02-15T00:06:05;3.50;99.90
56725;DHT22;42608;52.776;6.968;2023-02-15T00:08:31;3.50;99.90
56725;DHT22;42608;52.776;6.968;2023-02-15T00:11:09;3.60;99.90
56725;DHT22;42608;52.776;6.968;2023-02-15T00:13:35;3.50;99.90
56725;DHT22;42608;52.776;6.968;2023-02-15T00:16:02;3.60;99.90
56725;DHT22;42608;52.776;6.968;2023-02-15T00:18:28;3.60;99.90
56725;DHT22;42608;52.776;6.968;2023-02-15T00:20:54;3.60;99.90
56725;DHT22;42608;52.776;6.968;2023-02-15T00:23:19;3.60;99.90
56725;DHT22;42608;52.776;6.968;2023-02-15T00:25:45;3.60;99.90
56725;DHT22;42608;52.776;6.968;2023-02-15T00:28:10;3.60;99.90
56725;DHT22;42608;52.776;6.968;2023-02-15T00:30:36;3.60;99.90
56725;DHT22;42608;52.776;6.968;2023-02-15T00:33:01;3.60;99.90
56725;DHT22;42608;52.776;6.968;2023-02-15T00:35:27;3.60;99.90
56725;DHT22;42608;52.776;6.968;2023-02-15T00:37:52;3.60;99.90
56725;DHT22;42608;52.776;6.968;2023-02-15T00:40:18;3.60;99.90
56725;DHT22;42608;52.776;6.968;2023-02-15T00:42:43;3.50;99.90
56725;DHT22;42608;52.776;6.968;2023-02-15T00:45:09;3.50;99.90
56725;DHT22;42608;52.776;6.968;2023-02-15T00:47:35;3.50;99.90
56725;DHT22;42608;52.776;6.968;2023-02-15T00:50:00;3.50;99.90
56725;DHT22;42608;52.776;6.968;2023-02-15T00:52:26;3.50;99.90
56725;DHT22;42608;52.776;6.968;2023-02-15T00:54:51;3.50;99.90
56725;DHT22;42608;52.776;6.968;2023-02-15T00:57:17;3.40;99.90
56725;DHT22;42608;52.776;6.968;2023-02-15T00:59:42;3.40;99.90
56725;DHT22;42608;52.776;6.968;2023-02-15T01:02:08;3.40;99.90
56725;DHT22;42608;52.776;6.968;2023-02-15T01:04:33;3.40;99.90
56725;DHT22;42608;52.776;6.968;2023-02-15T01:06:59;3.40;99.90
56725;DHT22;42608;52.776;6.968;2023-02-15T01:09:25;3.30;99.90
56725;DHT22;42608;52.776;6.968;2023-02-15T01:11:50;3.30;99.90
56725;DHT22;42608;52.776;6.968;2023-02-15T01:14:16;3.30;99.90
56725;DHT22;42608;52.776;6.968;2023-02-15T01:16:41;3.30;99.90
56725;DHT22;42608;52.776;6.968;2023-02-15T01:19:07;3.30;99.90
56725;DHT22;42608;52.776;6.968;2023-02-15T01:21:32;3.30;99.90
56725;DHT22;42608;52.776;6.968;2023-02-15T01:24:00;3.30;99.90
56725;DHT22;42608;52.776;6.968;2023-02-15T01:26:25;3.30;99.90
56725;DHT22;42608;52.776;6.968;2023-02-15T01:28:51;3.20;99.90
56725;DHT22;42608;52.776;6.968;2023-02-15T01:31:20;3.20;99.90
56725;DHT22;42608;52.776;6.968;2023-02-15T01:33:46;3.20;99.90
56725;DHT22;42608;52.776;6.968;2023-02-15T01:36:12;3.20;99.90
56725;DHT22;42608;52.776;6.968;2023-02-15T01:38:38;3.20;99.90
56725;DHT22;42608;52.776;6.968;2023-02-15T01:41:05;3.20;99.90
56725;DHT22;42608;52.776;6.968;2023-02-15T01:44:00;3.10;99.90
56725;DHT22;42608;52.776;6.968;2023-02-15T01:46:38;3.10;99.90
56725;DHT22;42608;52.776;6.968;2023-02-15T01:49:10;3.10;99.90
56725;DHT22;42608;52.776;6.968;2023-02-15T01:51:36;3.10;99.90
56725;DHT22;42608;52.776;6.968;2023-02-15T01:54:10;3.00;99.90
56725;DHT22;42608;52.776;6.968;2023-02-15T01:56:38;3.00;99.90
56725;DHT22;42608;52.776;6.968;2023-02-15T01:59:09;2.90;99.90
56725;DHT22;42608;52.776;6.968;2023-02-15T02:01:37;2.90;99.90
56725;DHT22;42608;52.776;6.968;2023-02-15T02:04:11;2.90;99.90
56725;DHT22;42608;52.776;6.968;2023-02-15T02:06:38;2.80;99.90
56725;DHT22;42608;52.776;6.968;2023-02-15T02:09:04;2.80;99.90
56725;DHT22;42608;52.776;6.968;2023-02-15T02:11:30;2.80;99.90
56725;DHT22;42608;52.776;6.968;2023-02-15T02:13:55;2.80;99.90
56725;DHT22;42608;52.776;6.968;2023-02-15T02:16:37;2.80;99.90
56725;DHT22;42608;52.776;6.968;2023-02-15T02:27:19;2.70;99.90
56725;DHT22;42608;52.776;6.968;2023-02-15T02:35:22;2.70;99.90
56725;DHT22;42608;52.776;6.968;2023-02-15T02:43:22;2.50;99.90
56725;DHT22;42608;52.776;6.968;2023-02-15T02:45:56;2.50;99.90
56725;DHT22;42608;52.776;6.968;2023-02-15T02:48:22;2.50;99.90
56725;DHT22;42608;52.776;6.968;2023-02-15T02:50:49;2.50;99.90
56725;DHT22;42608;52.776;6.968;2023-02-15T02:53:15;2.40;99.90
56725;DHT22;42608;52.776;6.968;2023-02-15T03:03:49;2.50;99.90
56725;DHT22;42608;52.776;6.968;2023-02-15T03:06:18;2.50;99.90
56725;DHT22;42608;52.776;6.968;2023-02-15T03:08:48;2.50;99.90
56725;DHT22;42608;52.776;6.968;2023-02-15T03:11:15;2.50;99.90
56725;DHT22;42608;52.776;6.968;2023-02-15T03:13:41;2.50;99.90
56725;DHT22;42608;52.776;6.968;2023-02-15T03:16:07;2.50;99.90
56725;DHT22;42608;52.776;6.968;2023-02-15T03:18:57;2.50;99.90
56725;DHT22;42608;52.776;6.968;2023-02-15T03:21:31;2.50;99.90
56725;DHT22;42608;52.776;6.968;2023-02-15T03:23:59;2.50;99.90
56725;DHT22;42608;52.776;6.968;2023-02-15T03:26:26;2.50;99.90
56725;DHT22;42608;52.776;6.968;2023-02-15T03:28:53;2.50;99.90
56725;DHT22;42608;52.776;6.968;2023-02-15T03:31:20;2.50;99.90
56725;DHT22;42608;52.776;6.968;2023-02-15T03:33:50;2.50;99.90
56725;DHT22;42608;52.776;6.968;2023-02-15T03:41:19;2.50;99.90
56725;DHT22;42608;52.776;6.968;2023-02-15T03:43:49;2.50;99.90
56725;DHT22;42608;52.776;6.968;2023-02-15T03:46:17;2.50;99.90
56725;DHT22;42608;52.776;6.968;2023-02-15T03:48:47;2.50;99.90
56725;DHT22;42608;52.776;6.968;2023-02-15T03:51:16;2.50;99.90
56725;DHT22;42608;52.776;6.968;2023-02-15T03:53:59;2.50;99.90
56725;DHT22;42608;52.776;6.968;2023-02-15T03:56:25;2.40;99.90
56725;DHT22;42608;52.776;6.968;2023-02-15T03:58:51;2.40;99.90
56725;DHT22;42608;52.776;6.968;2023-02-15T04:02:19;2.40;99.90
56725;DHT22;42608;52.776;6.968;2023-02-15T04:04:29;2.40;99.90
56725;DHT22;42608;52.776;6.968;2023-02-15T04:06:56;2.30;99.90
56725;DHT22;42608;52.776;6.968;2023-02-15T04:09:22;2.30;99.90
56725;DHT22;42608;52.776;6.968;2023-02-15T04:12:06;2.30;99.90
56725;DHT22;42608;52.776;6.968;2023-02-15T04:14:32;2.30;99.90
56725;DHT22;42608;52.776;6.968;2023-02-15T04:17:16;2.30;99.90
56725;DHT22;42608;52.776;6.968;2023-02-15T04:19:41;2.20;99.90
56725;DHT22;42608;52.776;6.968;2023-02-15T04:22:25;2.20;99.90
56725;DHT22;42608;52.776;6.968;2023-02-15T04:25:09;2.20;99.90
56725;DHT22;42608;52.776;6.968;2023-02-15T04:27:38;2.10;99.90
56725;DHT22;42608;52.776;6.968;2023-02-15T04:30:04;2.10;99.90
56725;DHT22;42608;52.776;6.968;2023-02-15T04:32:30;2.20;99.90
56725;DHT22;42608;52.776;6.968;2023-02-15T04:34:56;2.20;99.90
56725;DHT22;42608;52.776;6.968;2023-02-15T04:37:21;2.20;99.90
56725;DHT22;42608;52.776;6.968;2023-02-15T04:39:47;2.10;99.90
56725;DHT22;42608;52.776;6.968;2023-02-15T04:42:12;2.10;99.90
56725;DHT22;42608;52.776;6.968;2023-02-15T04:44:38;2.10;99.90
56725;DHT22;42608;52.776;6.968;2023-02-15T04:47:03;2.10;99.90
56725;DHT22;42608;52.776;6.968;2023-02-15T04:49:29;2.10;99.90
56725;DHT22;42608;52.776;6.968;2023-02-15T04:51:54;2.00;99.90
56725;DHT22;42608;52.776;6.968;2023-02-15T04:54:20;2.00;99.90
56725;DHT22;42608;52.776;6.968;2023-02-15T04:56:46;1.90;99.90
56725;DHT22;42608;52.776;6.968;2023-02-15T04:59:11;1.90;99.90
56725;DHT22;42608;52.776;6.968;2023-02-15T05:01:37;1.90;99.90
56725;DHT22;42608;52.776;6.968;2023-02-15T05:04:03;1.80;99.90
56725;DHT22;42608;52.776;6.968;2023-02-15T05:06:28;1.80;99.90
56725;DHT22;42608;52.776;6.968;2023-02-15T05:08:54;1.80;99.90
56725;DHT22;42608;52.776;6.968;2023-02-15T05:11:19;1.80;99.90
56725;DHT22;42608;52.776;6.968;2023-02-15T05:13:45;1.80;99.90
56725;DHT22;42608;52.776;6.968;2023-02-15T05:16:10;1.70;99.90
56725;DHT22;42608;52.776;6.968;2023-02-15T05:18:36;1.70;99.90
56725;DHT22;42608;52.776;6.968;2023-02-15T05:21:02;1.70;99.90
56725;DHT22;42608;52.776;6.968;2023-02-15T05:23:27;1.70;99.90
56725;DHT22;42608;52.776;6.968;2023-02-15T05:25:53;1.70;99.90
56725;DHT22;42608;52.776;6.968;2023-02-15T05:28:37;1.70;99.90
56725;DHT22;42608;52.776;6.968;2023-02-15T05:31:05;1.70;99.90
56725;DHT22;42608;52.776;6.968;2023-02-15T05:33:31;1.80;99.90
56725;DHT22;42608;52.776;6.968;2023-02-15T05:35:56;1.70;99.90
56725;DHT22;42608;52.776;6.968;2023-02-15T05:38:22;1.80;99.90
56725;DHT22;42608;52.776;6.968;2023-02-15T05:40:47;1.70;99.90
56725;DHT22;42608;52.776;6.968;2023-02-15T05:43:13;1.80;99.90
56725;DHT22;42608;52.776;6.968;2023-02-15T05:45:39;1.70;99.90
56725;DHT22;42608;52.776;6.968;2023-02-15T05:48:04;1.70;99.90
56725;DHT22;42608;52.776;6.968;2023-02-15T05:50:30;1.80;99.90
56725;DHT22;42608;52.776;6.968;2023-02-15T05:52:55;1.70;99.90
56725;DHT22;42608;52.776;6.968;2023-02-15T05:55:21;1.70;99.90
56725;DHT22;42608;52.776;6.968;2023-02-15T05:57:48;1.70;99.90
56725;DHT22;42608;52.776;6.968;2023-02-15T06:00:13;1.70;99.90
56725;DHT22;42608;52.776;6.968;2023-02-15T06:02:39;1.70;99.90
56725;DHT22;42608;52.776;6.968;2023-02-15T06:05:05;1.70;99.90
56725;DHT22;42608;52.776;6.968;2023-02-15T06:07:31;1.70;99.90
56725;DHT22;42608;52.776;6.968;2023-02-15T06:09:56;1.70;99.90
56725;DHT22;42608;52.776;6.968;2023-02-15T06:12:22;1.60;99.90
56725;DHT22;42608;52.776;6.968;2023-02-15T06:14:48;1.60;99.90
56725;DHT22;42608;52.776;6.968;2023-02-15T06:17:13;1.60;99.90
56725;DHT22;42608;52.776;6.968;2023-02-15T06:19:39;1.60;99.90
56725;DHT22;42608;52.776;6.968;2023-02-15T06:22:04;1.60;99.90
56725;DHT22;42608;52.776;6.968;2023-02-15T06:24:31;1.60;99.90
56725;DHT22;42608;52.776;6.968;2023-02-15T06:26:57;1.60;99.90
56725;DHT22;42608;52.776;6.968;2023-02-15T06:29:22;1.60;99.90
56725;DHT22;42608;52.776;6.968;2023-02-15T06:31:48;1.60;99.90
56725;DHT22;42608;52.776;6.968;2023-02-15T06:34:13;1.60;99.90
56725;DHT22;42608;52.776;6.968;2023-02-15T06:36:39;1.60;99.90
56725;DHT22;42608;52.776;6.968;2023-02-15T06:39:05;1.60;99.90
56725;DHT22;42608;52.776;6.968;2023-02-15T06:41:30;1.50;99.90
56725;DHT22;42608;52.776;6.968;2023-02-15T06:43:56;1.50;99.90
56725;DHT22;42608;52.776;6.968;2023-02-15T06:46:21;1.50;99.90
56725;DHT22;42608;52.776;6.968;2023-02-15T06:48:47;1.50;99.90
56725;DHT22;42608;52.776;6.968;2023-02-15T06:51:13;1.60;99.90
56725;DHT22;42608;52.776;6.968;2023-02-15T06:53:38;1.60;99.90
56725;DHT22;42608;52.776;6.968;2023-02-15T06:56:06;1.60;99.90
56725;DHT22;42608;52.776;6.968;2023-02-15T06:58:34;1.60;99.90
56725;DHT22;42608;52.776;6.968;2023-02-15T07:01:00;1.60;99.90
56725;DHT22;42608;52.776;6.968;2023-02-15T07:03:26;1.60;99.90
56725;DHT22;42608;52.776;6.968;2023-02-15T07:05:55;1.60;99.90
56725;DHT22;42608;52.776;6.968;2023-02-15T07:08:21;1.60;99.90
56725;DHT22;42608;52.776;6.968;2023-02-15T07:10:48;1.50;99.90
56725;DHT22;42608;52.776;6.968;2023-02-15T07:13:14;1.50;99.90
56725;DHT22;42608;52.776;6.968;2023-02-15T07:15:39;1.50;99.90
56725;DHT22;42608;52.776;6.968;2023-02-15T07:18:05;1.50;99.90
56725;DHT22;42608;52.776;6.968;2023-02-15T07:20:30;1.50;99.90
56725;DHT22;42608;52.776;6.968;2023-02-15T07:22:56;1.50;99.90
56725;DHT22;42608;52.776;6.968;2023-02-15T07:25:22;1.50;99.90
56725;DHT22;42608;52.776;6.968;2023-02-15T07:27:47;1.40;99.90
56725;DHT22;42608;52.776;6.968;2023-02-15T07:30:14;1.50;99.90
56725;DHT22;42608;52.776;6.968;2023-02-15T07:32:40;1.50;99.90
56725;DHT22;42608;52.776;6.968;2023-02-15T07:35:25;1.50;99.90
56725;DHT22;42608;52.776;6.968;2023-02-15T07:37:51;1.50;99.90
56725;DHT22;42608;52.776;6.968;2023-02-15T07:40:18;1.50;99.90
56725;DHT22;42608;52.776;6.968;2023-02-15T07:42:44;1.50;99.90
56725;DHT22;42608;52.776;6.968;2023-02-15T07:45:09;1.50;99.90
56725;DHT22;42608;52.776;6.968;2023-02-15T07:47:35;1.50;99.90
56725;DHT22;42608;52.776;6.968;2023-02-15T07:50:01;1.60;99.90
56725;DHT22;42608;52.776;6.968;2023-02-15T07:52:27;1.60;99.90
56725;DHT22;42608;52.776;6.968;2023-02-15T07:54:52;1.60;99.90
56725;DHT22;42608;52.776;6.968;2023-02-15T07:57:18;1.60;99.90
56725;DHT22;42608;52.776;6.968;2023-02-15T07:59:43;1.70;99.90
56725;DHT22;42608;52.776;6.968;2023-02-15T08:02:10;1.70;99.90
56725;DHT22;42608;52.776;6.968;2023-02-15T08:04:35;1.70;99.90
56725;DHT22;42608;52.776;6.968;2023-02-15T08:07:01;1.80;99.90
56725;DHT22;42608;52.776;6.968;2023-02-15T08:09:27;1.80;99.90
56725;DHT22;42608;52.776;6.968;2023-02-15T08:11:52;1.90;99.90
56725;DHT22;42608;52.776;6.968;2023-02-15T08:14:19;1.90;99.90
56725;DHT22;42608;52.776;6.968;2023-02-15T08:16:46;1.90;99.90
56725;DHT22;42608;52.776;6.968;2023-02-15T08:21:44;2.00;99.90
56725;DHT22;42608;52.776;6.968;2023-02-15T08:24:11;2.00;99.90
56725;DHT22;42608;52.776;6.968;2023-02-15T08:26:37;2.00;99.90
56725;DHT22;42608;52.776;6.968;2023-02-15T08:29:04;2.10;99.90
56725;DHT22;42608;52.776;6.968;2023-02-15T08:31:30;2.10;99.90
56725;DHT22;42608;52.776;6.968;2023-02-15T08:33:56;2.20;99.90
56725;DHT22;42608;52.776;6.968;2023-02-15T08:36:23;2.20;99.90
56725;DHT22;42608;52.776;6.968;2023-02-15T08:38:48;2.30;99.90
56725;DHT22;42608;52.776;6.968;2023-02-15T08:41:28;2.30;99.90
56725;DHT22;42608;52.776;6.968;2023-02-15T08:43:55;2.40;99.90
56725;DHT22;42608;52.776;6.968;2023-02-15T08:46:22;2.40;99.90
56725;DHT22;42608;52.776;6.968;2023-02-15T08:48:47;2.50;99.90
56725;DHT22;42608;52.776;6.968;2023-02-15T08:51:17;2.60;99.90
56725;DHT22;42608;52.776;6.968;2023-02-15T08:53:45;2.70;99.90
56725;DHT22;42608;52.776;6.968;2023-02-15T08:56:11;2.70;99.90
56725;DHT22;42608;52.776;6.968;2023-02-15T08:58:37;2.80;99.90
56725;DHT22;42608;52.776;6.968;2023-02-15T09:01:10;2.80;99.90
56725;DHT22;42608;52.776;6.968;2023-02-15T09:03:35;2.90;99.90
56725;DHT22;42608;52.776;6.968;2023-02-15T09:06:01;3.00;99.90
56725;DHT22;42608;52.776;6.968;2023-02-15T09:08:27;3.00;99.90
56725;DHT22;42608;52.776;6.968;2023-02-15T09:10:53;3.10;99.90
56725;DHT22;42608;52.776;6.968;2023-02-15T09:13:19;3.10;99.90
56725;DHT22;42608;52.776;6.968;2023-02-15T09:15:46;3.20;99.90
56725;DHT22;42608;52.776;6.968;2023-02-15T09:18:11;3.20;99.90
56725;DHT22;42608;52.776;6.968;2023-02-15T09:20:42;3.30;99.90
56725;DHT22;42608;52.776;6.968;2023-02-15T09:23:08;3.40;99.90
56725;DHT22;42608;52.776;6.968;2023-02-15T09:25:33;3.40;99.90
56725;DHT22;42608;52.776;6.968;2023-02-15T09:27:59;3.50;99.90
56725;DHT22;42608;52.776;6.968;2023-02-15T09:30:25;3.50;99.90
56725;DHT22;42608;52.776;6.968;2023-02-15T09:32:50;3.60;99.90
56725;DHT22;42608;52.776;6.968;2023-02-15T09:35:16;3.70;99.90
56725;DHT22;42608;52.776;6.968;2023-02-15T09:37:41;3.70;99.90
56725;DHT22;42608;52.776;6.968;2023-02-15T09:40:07;3.80;99.90
56725;DHT22;42608;52.776;6.968;2023-02-15T09:45:07;3.90;99.90
56725;DHT22;42608;52.776;6.968;2023-02-15T09:50:25;4.00;99.90
56725;DHT22;42608;52.776;6.968;2023-02-15T09:58:05;4.20;99.90
56725;DHT22;42608;52.776;6.968;2023-02-15T10:00:39;4.20;99.90
56725;DHT22;42608;52.776;6.968;2023-02-15T10:11:18;4.50;99.90
56725;DHT22;42608;52.776;6.968;2023-02-15T10:14:22;4.60;99.90
56725;DHT22;42608;52.776;6.968;2023-02-15T10:17:00;4.70;99.90
56725;DHT22;42608;52.776;6.968;2023-02-15T10:24:39;4.90;99.90
56725;DHT22;42608;52.776;6.968;2023-02-15T10:27:11;5.00;99.90
56725;DHT22;42608;52.776;6.968;2023-02-15T10:29:38;5.10;99.90
56725;DHT22;42608;52.776;6.968;2023-02-15T10:34:43;5.20;99.90
56725;DHT22;42608;52.776;6.968;2023-02-15T10:37:32;5.30;99.90
56725;DHT22;42608;52.776;6.968;2023-02-15T10:45:52;5.50;99.90
56725;DHT22;42608;52.776;6.968;2023-02-15T10:56:19;5.80;99.90
56725;DHT22;42608;52.776;6.968;2023-02-15T11:06:59;6.10;99.90
56725;DHT22;42608;52.776;6.968;2023-02-15T11:09:25;6.20;99.90
56725;DHT22;42608;52.776;6.968;2023-02-15T11:11:55;6.20;99.90
56725;DHT22;42608;52.776;6.968;2023-02-15T11:16:49;6.40;99.90
56725;DHT22;42608;52.776;6.968;2023-02-15T11:19:20;6.50;99.90
56725;DHT22;42608;52.776;6.968;2023-02-15T11:21:48;6.60;99.90
56725;DHT22;42608;52.776;6.968;2023-02-15T11:24:19;6.70;99.90
56725;DHT22;42608;52.776;6.968;2023-02-15T11:26:59;6.80;99.90
56725;DHT22;42608;52.776;6.968;2023-02-15T11:29:39;6.80;99.90
56725;DHT22;42608;52.776;6.968;2023-02-15T11:32:25;6.90;99.90
56725;DHT22;42608;52.776;6.968;2023-02-15T11:34:56;7.00;99.90
56725;DHT22;42608;52.776;6.968;2023-02-15T11:37:45;7.10;99.90
56725;DHT22;42608;52.776;6.968;2023-02-15T11:40:28;7.20;99.90
56725;DHT22;42608;52.776;6.968;2023-02-15T11:42:56;7.30;99.90
56725;DHT22;42608;52.776;6.968;2023-02-15T11:47:48;7.40;99.90
56725;DHT22;42608;52.776;6.968;2023-02-15T11:50:15;7.50;99.90
56725;DHT22;42608;52.776;6.968;2023-02-15T11:52:43;7.60;99.90
56725;DHT22;42608;52.776;6.968;2023-02-15T11:55:18;7.60;99.90
56725;DHT22;42608;52.776;6.968;2023-02-15T11:57:45;7.70;99.90
56725;DHT22;42608;52.776;6.968;2023-02-15T12:00:14;7.70;99.90
56725;DHT22;42608;52.776;6.968;2023-02-15T12:02:44;7.80;99.90
56725;DHT22;42608;52.776;6.968;2023-02-15T12:05:15;7.90;99.90
56725;DHT22;42608;52.776;6.968;2023-02-15T12:10:22;8.00;99.90
56725;DHT22;42608;52.776;6.968;2023-02-15T12:15:34;8.20;99.90
56725;DHT22;42608;52.776;6.968;2023-02-15T12:18:00;8.30;99.90
56725;DHT22;42608;52.776;6.968;2023-02-15T12:20:28;8.40;99.90
56725;DHT22;42608;52.776;6.968;2023-02-15T12:22:59;8.40;99.90
56725;DHT22;42608;52.776;6.968;2023-02-15T12:27:53;8.60;99.90
56725;DHT22;42608;52.776;6.968;2023-02-15T12:30:20;8.70;99.90
56725;DHT22;42608;52.776;6.968;2023-02-15T12:32:48;8.80;99.90
56725;DHT22;42608;52.776;6.968;2023-02-15T12:35:36;8.90;99.90
56725;DHT22;42608;52.776;6.968;2023-02-15T12:38:43;8.90;99.90
56725;DHT22;42608;52.776;6.968;2023-02-15T12:43:29;9.00;99.90
56725;DHT22;42608;52.776;6.968;2023-02-15T12:46:14;9.10;99.90
56725;DHT22;42608;52.776;6.968;2023-02-15T12:48:44;9.20;99.90
56725;DHT22;42608;52.776;6.968;2023-02-15T12:51:14;9.30;99.90
56725;DHT22;42608;52.776;6.968;2023-02-15T12:53:41;9.40;99.90
56725;DHT22;42608;52.776;6.968;2023-02-15T12:56:09;9.50;99.90
56725;DHT22;42608;52.776;6.968;2023-02-15T12:58:37;9.60;99.90
56725;DHT22;42608;52.776;6.968;2023-02-15T13:01:16;9.70;99.90
56725;DHT22;42608;52.776;6.968;2023-02-15T13:04:03;9.80;99.90
56725;DHT22;42608;52.776;6.968;2023-02-15T13:06:33;9.90;99.90
56725;DHT22;42608;52.776;6.968;2023-02-15T13:09:19;9.90;99.90
56725;DHT22;42608;52.776;6.968;2023-02-15T13:11:46;10.00;99.90
56725;DHT22;42608;52.776;6.968;2023-02-15T13:14:43;10.00;99.90
56725;DHT22;42608;52.776;6.968;2023-02-15T13:17:11;10.10;99.90
56725;DHT22;42608;52.776;6.968;2023-02-15T13:19:42;10.10;99.90
56725;DHT22;42608;52.776;6.968;2023-02-15T13:22:22;10.10;99.90
56725;DHT22;42608;52.776;6.968;2023-02-15T13:24:53;10.20;99.90
56725;DHT22;42608;52.776;6.968;2023-02-15T13:27:22;10.20;99.90
56725;DHT22;42608;52.776;6.968;2023-02-15T13:29:58;10.30;99.90
56725;DHT22;42608;52.776;6.968;2023-02-15T13:32:32;10.30;99.90
56725;DHT22;42608;52.776;6.968;2023-02-15T13:35:00;10.30;99.90
56725;DHT22;42608;52.776;6.968;2023-02-15T13:40:18;10.40;99.90
56725;DHT22;42608;52.776;6.968;2023-02-15T13:51:56;10.60;99.90
56725;DHT22;42608;52.776;6.968;2023-02-15T14:10:22;10.80;99.90
56725;DHT22;42608;52.776;6.968;2023-02-15T14:16:17;10.90;99.90
56725;DHT22;42608;52.776;6.968;2023-02-15T14:19:09;10.90;99.90
56725;DHT22;42608;52.776;6.968;2023-02-15T14:24:27;10.90;99.90
56725;DHT22;42608;52.776;6.968;2023-02-15T14:29:45;11.00;99.90
56725;DHT22;42608;52.776;6.968;2023-02-15T14:32:34;11.00;99.90
56725;DHT22;42608;52.776;6.968;2023-02-15T14:35:16;11.00;99.90
56725;DHT22;42608;52.776;6.968;2023-02-15T14:38:12;11.00;99.90
56725;DHT22;42608;52.776;6.968;2023-02-15T14:40:59;11.00;99.90
56725;DHT22;42608;52.776;6.968;2023-02-15T14:48:46;10.90;99.90
56725;DHT22;42608;52.776;6.968;2023-02-15T14:56:42;10.80;99.90
56725;DHT22;42608;52.776;6.968;2023-02-15T14:59:18;10.80;99.90
56725;DHT22;42608;52.776;6.968;2023-02-15T15:02:03;10.80;99.90
56725;DHT22;42608;52.776;6.968;2023-02-15T15:07:17;10.80;99.90
56725;DHT22;42608;52.776;6.968;2023-02-15T15:09:48;10.80;99.90
56725;DHT22;42608;52.776;6.968;2023-02-15T15:14:50;10.80;99.90
56725;DHT22;42608;52.776;6.968;2023-02-15T15:20:46;10.70;99.90
56725;DHT22;42608;52.776;6.968;2023-02-15T15:25:57;10.70;99.90
56725;DHT22;42608;52.776;6.968;2023-02-15T15:34:15;10.60;99.90
56725;DHT22;42608;52.776;6.968;2023-02-15T15:50:52;10.50;99.90
56725;DHT22;42608;52.776;6.968;2023-02-15T15:53:24;10.40;99.90
56725;DHT22;42608;52.776;6.968;2023-02-15T15:55:54;10.40;99.90
56725;DHT22;42608;52.776;6.968;2023-02-15T15:58:22;10.40;99.90
56725;DHT22;42608;52.776;6.968;2023-02-15T16:00:59;10.30;99.90
56725;DHT22;42608;52.776;6.968;2023-02-15T16:03:28;10.30;99.90
56725;DHT22;42608;52.776;6.968;2023-02-15T16:05:55;10.20;99.90
56725;DHT22;42608;52.776;6.968;2023-02-15T16:08:31;10.20;99.90
56725;DHT22;42608;52.776;6.968;2023-02-15T16:11:10;10.10;99.90
56725;DHT22;42608;52.776;6.968;2023-02-15T16:13:36;10.10;99.90
56725;DHT22;42608;52.776;6.968;2023-02-15T16:16:05;10.10;99.90
56725;DHT22;42608;52.776;6.968;2023-02-15T16:18:31;10.10;99.90
56725;DHT22;42608;52.776;6.968;2023-02-15T16:21:00;10.00;99.90
56725;DHT22;42608;52.776;6.968;2023-02-15T16:28:35;10.00;99.90
56725;DHT22;42608;52.776;6.968;2023-02-15T16:31:14;9.90;99.90
56725;DHT22;42608;52.776;6.968;2023-02-15T16:33:41;9.90;99.90
56725;DHT22;42608;52.776;6.968;2023-02-15T16:36:28;9.80;99.90
56725;DHT22;42608;52.776;6.968;2023-02-15T16:41:27;9.70;99.90
56725;DHT22;42608;52.776;6.968;2023-02-15T16:43:54;9.60;99.90
56725;DHT22;42608;52.776;6.968;2023-02-15T16:46:48;9.60;99.90
56725;DHT22;42608;52.776;6.968;2023-02-15T16:49:21;9.50;99.90
56725;DHT22;42608;52.776;6.968;2023-02-15T16:51:59;9.50;99.90
56725;DHT22;42608;52.776;6.968;2023-02-15T16:54:27;9.50;99.90
56725;DHT22;42608;52.776;6.968;2023-02-15T16:56:53;9.40;99.90
56725;DHT22;42608;52.776;6.968;2023-02-15T17:01:53;9.40;99.90
56725;DHT22;42608;52.776;6.968;2023-02-15T17:07:04;9.30;99.90
56725;DHT22;42608;52.776;6.968;2023-02-15T17:09:31;9.30;99.90
56725;DHT22;42608;52.776;6.968;2023-02-15T17:11:57;9.30;99.90
56725;DHT22;42608;52.776;6.968;2023-02-15T17:14:31;9.20;99.90
56725;DHT22;42608;52.776;6.968;2023-02-15T17:17:14;9.20;99.90
56725;DHT22;42608;52.776;6.968;2023-02-15T17:19:49;9.20;99.90
56725;DHT22;42608;52.776;6.968;2023-02-15T17:22:24;9.10;99.90
56725;DHT22;42608;52.776;6.968;2023-02-15T17:24:58;9.10;99.90
56725;DHT22;42608;52.776;6.968;2023-02-15T17:27:27;9.10;99.90
56725;DHT22;42608;52.776;6.968;2023-02-15T17:30:01;9.00;99.90
56725;DHT22;42608;52.776;6.968;2023-02-15T17:32:30;9.00;99.90
56725;DHT22;42608;52.776;6.968;2023-02-15T17:37:41;8.90;99.90
56725;DHT22;42608;52.776;6.968;2023-02-15T17:42:45;8.80;99.90
56725;DHT22;42608;52.776;6.968;2023-02-15T17:45:11;8.80;99.90
56725;DHT22;42608;52.776;6.968;2023-02-15T17:47:37;8.80;99.90
56725;DHT22;42608;52.776;6.968;2023-02-15T17:50:04;8.80;99.90
56725;DHT22;42608;52.776;6.968;2023-02-15T17:52:30;8.80;99.90
56725;DHT22;42608;52.776;6.968;2023-02-15T17:54:57;8.80;99.90
56725;DHT22;42608;52.776;6.968;2023-02-15T17:57:41;8.70;99.90
56725;DHT22;42608;52.776;6.968;2023-02-15T18:00:07;8.70;99.90
56725;DHT22;42608;52.776;6.968;2023-02-15T18:02:52;8.70;99.90
56725;DHT22;42608;52.776;6.968;2023-02-15T18:05:36;8.60;99.90
56725;DHT22;42608;52.776;6.968;2023-02-15T18:08:25;8.60;99.90
56725;DHT22;42608;52.776;6.968;2023-02-15T18:11:10;8.60;99.90
56725;DHT22;42608;52.776;6.968;2023-02-15T18:13:54;8.50;99.90
56725;DHT22;42608;52.776;6.968;2023-02-15T18:16:27;8.50;99.90
56725;DHT22;42608;52.776;6.968;2023-02-15T18:18:54;8.50;99.90
56725;DHT22;42608;52.776;6.968;2023-02-15T18:21:20;8.50;99.90
56725;DHT22;42608;52.776;6.968;2023-02-15T18:23:46;8.40;99.90
56725;DHT22;42608;52.776;6.968;2023-02-15T18:26:19;8.40;99.90
56725;DHT22;42608;52.776;6.968;2023-02-15T18:28:46;8.40;99.90
56725;DHT22;42608;52.776;6.968;2023-02-15T18:31:12;8.40;99.90
56725;DHT22;42608;52.776;6.968;2023-02-15T18:33:45;8.40;99.90
56725;DHT22;42608;52.776;6.968;2023-02-15T18:36:25;8.40;99.90
56725;DHT22;42608;52.776;6.968;2023-02-15T18:38:52;8.30;99.90
56725;DHT22;42608;52.776;6.968;2023-02-15T18:41:19;8.30;99.90
56725;DHT22;42608;52.776;6.968;2023-02-15T18:43:46;8.30;99.90
56725;DHT22;42608;52.776;6.968;2023-02-15T18:46:13;8.20;99.90
56725;DHT22;42608;52.776;6.968;2023-02-15T18:48:39;8.20;99.90
56725;DHT22;42608;52.776;6.968;2023-02-15T18:51:09;8.20;99.90
56725;DHT22;42608;52.776;6.968;2023-02-15T18:53:40;8.10;99.90
56725;DHT22;42608;52.776;6.968;2023-02-15T18:56:07;8.10;99.90
56725;DHT22;42608;52.776;6.968;2023-02-15T18:58:33;8.00;99.90
56725;DHT22;42608;52.776;6.968;2023-02-15T19:00:58;8.10;99.90
56725;DHT22;42608;52.776;6.968;2023-02-15T19:03:25;8.10;99.90
56725;DHT22;42608;52.776;6.968;2023-02-15T19:05:51;8.00;99.90
56725;DHT22;42608;52.776;6.968;2023-02-15T19:08:21;8.00;99.90
56725;DHT22;42608;52.776;6.968;2023-02-15T19:10:50;8.00;99.90
56725;DHT22;42608;52.776;6.968;2023-02-15T19:13:16;7.90;99.90
56725;DHT22;42608;52.776;6.968;2023-02-15T19:15:42;7.90;99.90